« Back
NWS Peachtree City, Ga » Text Product » AHN Terminal Aerodrome Forecast


Printer-friendly Version
Current Version              Previous Versions:   1  2  3  4  5  6  7  8  9  

Terminal Aerodrome Forecast

647
FTUS42 KFFC 261124
TAFAHN
TAF
KAHN 261124Z 2612/2712 24008KT 6SM BR SCT035
     FM261300 28010KT P6SM SCT035
     FM261600 29012G22KT P6SM BKN045
     FM270200 33007KT P6SM SCT200=

USA.gov is the U.S. government's official web portal to all federal, state and local government web resources and services.